Jacksonville, FL (32244)

12:41 PM EDT on May 29, 2015 (GMT -0400)
Westside, South Ricker Rd | | Change Station
CLOSE
Current Station
Personal Weather Station
Location: Jacksonville, FL
Elevation: 21 ft
Nearby Weather Stations

Elev 21 ft 30.21 °N, 81.77 °W | Updated 5 seconds ago

Partly Cloudy
Partly Cloudy
87.8 °F
Feels Like 90 °F
N
0.0
Wind Variable Wind from ENE
Gusts 0.0 mph

Today
High -- | Low -- °F
--% Chance of Precip.
Yesterday
High -- | Low -- °F
Precip. -- in
6:26 AM 8:22 PM
Waxing Gibbous, 84% visible
Pressure 30.16 in
Visibility 10.0 miles
Clouds Scattered Clouds 5000 ft
Scattered Clouds 25000 ft
Heat Index 90 °F
Dew Point 66 °F
Humidity 49%
Rainfall 0.00 in
Snow Depth Not available.
UV 11 out of 12
Pollen 4.30 out of 12
Air Quality Not available.
Flu Activity Sporadic
METAR KNIP 291553Z 07011KT 10SM SCT050 SCT250 30/16 A3017 RMK AO2 SLP212 T03000161

More Conditions Fewer Conditions

Pressure 30.16 in
Visibility 10.0 miles
Clouds Scattered Clouds 5000 ft
Scattered Clouds 25000 ft
Heat Index 90 °F
Dew Point 66 °F
Humidity 49%
Rainfall 0.00 in
Snow Depth Not available.
UV 11 out of 12
Pollen 4.30 out of 12
Air Quality Not available.
Flu Activity Sporadic
METAR KNIP 291553Z 07011KT 10SM SCT050 SCT250 30/16 A3017 RMK AO2 SLP212 T03000161

More Conditions Fewer Conditions

10-Day Weather Forecast

Almanac

Astronomy

May. 29, 2015 Rise Set
Actual Time
Civil Twilight
Nautical Twilight
Astronomical Twilight
Moon
Length of Visible Light
Length of Day
Tomorrow will be .
, % of the Moon is Illuminated

Today's Extremes

State Highs State Lows

Community

WunderPhotos

Upload Photos

1,825,301 photos uploaded!

WunderBlogs® & News

Nearby

Air Quality

  Air Quality AQ Index Pollutant
Not available.

Snow Depth

Station Depth Elevation

Earthquake Activity

City Distance Mag. Time & Date
Minimum magnitude displayed is 2.5.

Coastal Water Temperatures

Place Temperature

Stations

Nearby Weather Stations

Station Location Temp. Windchill Dew Point Humidity Wind Precip. Elev Updated Type